createdAt,value
2023-05-04T00:02:12.409Z,8.50
2023-05-04T00:05:36.522Z,8.40
2023-05-04T00:09:00.551Z,8.40
2023-05-04T00:12:24.635Z,8.40
2023-05-04T00:15:52.585Z,8.40
2023-05-04T00:19:18.930Z,8.40
2023-05-04T00:22:42.578Z,8.40
2023-05-04T00:26:06.579Z,8.30
2023-05-04T00:29:30.828Z,8.30
2023-05-04T00:32:58.402Z,8.30
2023-05-04T00:36:25.002Z,8.30
2023-05-04T00:39:50.954Z,8.30
2023-05-04T00:43:15.840Z,8.30
2023-05-04T00:46:40.040Z,8.30
2023-05-04T00:50:07.478Z,8.30
2023-05-04T00:53:31.908Z,8.20
2023-05-04T00:56:58.650Z,8.20
2023-05-04T01:00:22.608Z,8.20
2023-05-04T01:03:47.101Z,8.20
2023-05-04T01:07:21.869Z,8.20
2023-05-04T01:10:53.272Z,8.10
2023-05-04T01:14:22.506Z,8.10
2023-05-04T01:17:46.893Z,8.10
2023-05-04T01:21:11.646Z,8.00
2023-05-04T01:24:37.118Z,8.00
2023-05-04T01:28:09.012Z,7.90
2023-05-04T01:31:35.245Z,7.90
2023-05-04T01:35:00.257Z,7.90
2023-05-04T01:38:24.755Z,7.90
2023-05-04T01:41:52.587Z,7.80
2023-05-04T01:45:17.098Z,7.80
2023-05-04T01:48:41.567Z,7.80
2023-05-04T01:52:05.856Z,7.70
2023-05-04T01:55:29.662Z,7.70
2023-05-04T01:58:55.038Z,7.60
2023-05-04T02:02:18.666Z,7.60
2023-05-04T02:05:43.688Z,7.60
2023-05-04T02:09:07.660Z,7.60
2023-05-04T02:12:31.789Z,7.60
2023-05-04T02:15:59.451Z,7.60
2023-05-04T02:19:23.727Z,7.50
2023-05-04T02:22:47.714Z,7.50
2023-05-04T02:26:11.746Z,7.50
2023-05-04T02:29:35.714Z,7.50
2023-05-04T02:33:01.192Z,7.40
2023-05-04T02:36:27.105Z,7.40
2023-05-04T02:39:50.605Z,7.40
2023-05-04T02:43:14.776Z,7.40
2023-05-04T02:46:38.728Z,7.30
2023-05-04T02:50:04.687Z,7.30
2023-05-04T02:53:29.935Z,7.20
2023-05-04T02:56:53.834Z,7.20
2023-05-04T03:00:21.196Z,7.10
2023-05-04T03:03:45.899Z,7.10
2023-05-04T03:07:11.659Z,7.10
2023-05-04T03:10:35.790Z,7.10
2023-05-04T03:13:59.782Z,7.10
2023-05-04T03:17:23.798Z,7.10
2023-05-04T03:20:47.778Z,7.00
2023-05-04T03:24:19.118Z,7.00
2023-05-04T03:27:44.787Z,6.90
2023-05-04T03:31:11.054Z,6.90
2023-05-04T03:34:35.580Z,6.90
2023-05-04T03:38:01.810Z,6.90
2023-05-04T03:41:27.150Z,6.80
2023-05-04T03:44:52.901Z,6.80
2023-05-04T03:48:16.984Z,6.80
2023-05-04T03:51:44.027Z,6.80
2023-05-04T03:55:08.912Z,6.90
2023-05-04T03:58:35.164Z,6.80
2023-05-04T04:02:01.877Z,6.70
2023-05-04T04:05:26.970Z,6.70
2023-05-04T04:08:51.840Z,6.80
2023-05-04T04:12:18.239Z,6.80
2023-05-04T04:15:44.831Z,6.90
2023-05-04T04:19:08.402Z,6.80
2023-05-04T04:22:32.908Z,6.90
2023-05-04T04:25:56.901Z,6.90
2023-05-04T04:29:20.868Z,6.90
2023-05-04T04:32:46.996Z,7.00
2023-05-04T04:36:12.582Z,7.10
2023-05-04T04:39:36.914Z,7.20
2023-05-04T04:43:00.908Z,7.30
2023-05-04T04:46:25.074Z,7.40
2023-05-04T04:49:50.310Z,7.40
2023-05-04T04:53:14.127Z,7.50
2023-05-04T04:56:40.372Z,7.60
2023-05-04T05:00:09.023Z,7.60
2023-05-04T05:03:33.700Z,7.80
2023-05-04T05:06:59.602Z,8.00
2023-05-04T05:10:23.907Z,8.20
2023-05-04T05:13:47.930Z,8.80
2023-05-04T05:17:12.006Z,9.30
2023-05-04T05:20:35.988Z,9.60
2023-05-04T05:24:01.683Z,9.90
2023-05-04T05:27:29.269Z,10.10
2023-05-04T05:30:53.004Z,10.40
2023-05-04T05:34:17.148Z,10.50
2023-05-04T05:37:41.008Z,10.50
2023-05-04T05:41:06.583Z,10.30
2023-05-04T05:44:31.038Z,10.20
2023-05-04T05:47:55.017Z,10.20
2023-05-04T05:51:18.971Z,10.30
2023-05-04T05:54:43.011Z,10.20
2023-05-04T05:58:08.509Z,10.20
2023-05-04T06:01:33.291Z,10.30
2023-05-04T06:04:57.121Z,10.30
2023-05-04T06:08:20.780Z,10.50
2023-05-04T06:11:45.592Z,10.40
2023-05-04T06:15:12.436Z,10.50
2023-05-04T06:18:37.016Z,10.70
2023-05-04T06:22:02.715Z,11.00
2023-05-04T06:25:27.042Z,11.20
2023-05-04T06:28:53.402Z,11.20
2023-05-04T06:32:19.402Z,11.30
2023-05-04T06:35:43.213Z,11.50
2023-05-04T06:39:06.985Z,11.50
2023-05-04T06:42:31.458Z,11.60
2023-05-04T06:45:57.309Z,11.90
2023-05-04T06:49:22.438Z,11.90
2023-05-04T06:52:48.796Z,12.10
2023-05-04T06:56:13.018Z,13.00
2023-05-04T06:59:37.044Z,13.20
2023-05-04T07:03:02.335Z,14.30
2023-05-04T07:06:27.461Z,15.10
2023-05-04T07:09:52.025Z,16.00
2023-05-04T07:13:16.182Z,16.90
2023-05-04T07:16:40.164Z,17.70
2023-05-04T07:20:04.694Z,18.30
2023-05-04T07:23:30.613Z,18.70
2023-05-04T07:26:54.473Z,18.20
2023-05-04T07:30:18.293Z,17.70
2023-05-04T07:33:42.138Z,16.70
2023-05-04T07:37:06.489Z,16.20
2023-05-04T07:40:31.753Z,15.60
2023-05-04T07:43:55.316Z,16.10
2023-05-04T07:47:21.587Z,16.50
2023-05-04T07:50:46.651Z,16.90
2023-05-04T07:54:12.869Z,16.90
2023-05-04T07:57:41.351Z,18.00
2023-05-04T08:01:07.633Z,17.90
2023-05-04T08:04:32.709Z,18.50
2023-05-04T08:07:59.428Z,18.90
2023-05-04T08:11:27.954Z,19.60
2023-05-04T08:14:53.595Z,20.00
2023-05-04T08:18:17.781Z,20.60
2023-05-04T08:21:41.561Z,20.10
2023-05-04T08:25:05.761Z,20.40
2023-05-04T08:28:30.813Z,20.80
2023-05-04T08:31:58.160Z,20.60
2023-05-04T08:35:28.034Z,20.20
2023-05-04T08:38:53.952Z,20.80
2023-05-04T08:42:28.888Z,21.10
2023-05-04T08:45:54.057Z,21.60
2023-05-04T08:49:19.817Z,21.60
2023-05-04T08:52:47.541Z,22.10
2023-05-04T08:56:14.135Z,21.20
2023-05-04T08:59:39.017Z,21.00
2023-05-04T09:03:04.573Z,20.70
2023-05-04T09:06:33.173Z,20.80
2023-05-04T09:09:57.292Z,20.40
2023-05-04T09:13:24.097Z,20.60
2023-05-04T09:16:48.365Z,21.00
2023-05-04T09:20:13.500Z,20.30
2023-05-04T09:23:48.132Z,20.30
2023-05-04T09:27:13.135Z,20.60
2023-05-04T09:30:37.255Z,21.40
2023-05-04T09:34:10.063Z,22.50
2023-05-04T09:37:44.909Z,22.80
2023-05-04T09:41:10.842Z,22.90
2023-05-04T09:44:35.572Z,23.50
2023-05-04T09:47:59.806Z,23.00
2023-05-04T09:51:28.478Z,23.70
2023-05-04T09:54:53.247Z,24.50
2023-05-04T09:58:19.630Z,23.00
2023-05-04T10:01:46.421Z,22.90
2023-05-04T10:05:27.641Z,22.30
2023-05-04T10:08:51.991Z,22.50
2023-05-04T10:12:16.487Z,22.70
2023-05-04T10:15:55.852Z,22.50
2023-05-04T10:19:42.544Z,23.20
2023-05-04T10:23:47.973Z,23.90
2023-05-04T10:27:15.012Z,23.30
2023-05-04T10:30:39.937Z,22.80
2023-05-04T10:34:06.234Z,23.10
2023-05-04T10:37:31.721Z,23.70
2023-05-04T10:40:55.332Z,23.70
2023-05-04T10:44:19.429Z,23.30
2023-05-04T10:47:43.670Z,23.50
2023-05-04T10:51:20.274Z,23.20
2023-05-04T10:54:46.816Z,22.80
2023-05-04T10:58:11.432Z,23.20
2023-05-04T11:01:47.320Z,22.80
2023-05-04T11:05:17.991Z,22.50
2023-05-04T11:08:49.107Z,22.00
2023-05-04T11:12:18.430Z,21.50
2023-05-04T11:15:49.615Z,21.80
2023-05-04T11:19:13.532Z,21.40
2023-05-04T11:22:38.489Z,21.30
2023-05-04T11:26:09.268Z,21.20
2023-05-04T11:29:33.490Z,20.80
2023-05-04T11:33:00.367Z,20.80
2023-05-04T11:36:24.452Z,20.70
2023-05-04T11:39:48.945Z,20.60
2023-05-04T11:43:15.045Z,21.00
2023-05-04T11:46:40.134Z,20.90
2023-05-04T11:50:05.612Z,20.90
2023-05-04T11:53:38.321Z,20.60
2023-05-04T11:57:02.852Z,20.80
2023-05-04T12:00:40.754Z,20.60
2023-05-04T12:04:05.823Z,20.20
2023-05-04T12:07:30.794Z,20.50
2023-05-04T12:11:10.679Z,20.50
2023-05-04T12:14:34.557Z,20.70
2023-05-04T12:18:02.466Z,20.70
2023-05-04T12:21:30.013Z,20.40
2023-05-04T12:24:54.697Z,20.50
2023-05-04T12:28:19.545Z,20.70
2023-05-04T12:31:44.013Z,20.70
2023-05-04T12:35:10.785Z,20.40
2023-05-04T12:38:35.167Z,20.20
2023-05-04T12:41:59.630Z,20.70
2023-05-04T12:45:32.898Z,21.20
2023-05-04T12:48:59.813Z,21.20
2023-05-04T12:52:27.439Z,21.00
2023-05-04T12:55:51.237Z,21.10
2023-05-04T12:59:15.560Z,21.10
2023-05-04T13:02:39.731Z,20.60
2023-05-04T13:06:06.702Z,20.60
2023-05-04T13:09:31.958Z,20.60
2023-05-04T13:12:55.667Z,20.60
2023-05-04T13:16:19.615Z,20.60
2023-05-04T13:19:43.590Z,20.80
2023-05-04T13:23:09.988Z,21.10
2023-05-04T13:26:34.894Z,21.10
2023-05-04T13:30:01.453Z,20.80
2023-05-04T13:33:29.948Z,20.80
2023-05-04T13:36:54.607Z,20.70
2023-05-04T13:40:18.778Z,20.80
2023-05-04T13:43:44.134Z,20.90
2023-05-04T13:47:08.611Z,20.90
2023-05-04T13:50:33.193Z,20.90
2023-05-04T13:53:57.578Z,20.60
2023-05-04T13:57:23.763Z,20.70
2023-05-04T14:00:49.902Z,20.70
2023-05-04T14:04:13.472Z,20.80
2023-05-04T14:07:37.662Z,20.90
2023-05-04T14:11:01.754Z,20.90
2023-05-04T14:14:25.660Z,21.00
2023-05-04T14:17:51.306Z,21.00
2023-05-04T14:21:15.000Z,20.90
2023-05-04T14:24:38.738Z,21.00
2023-05-04T14:28:04.644Z,20.90
2023-05-04T14:31:30.461Z,21.00
2023-05-04T14:35:06.923Z,20.90
2023-05-04T14:38:32.164Z,20.60
2023-05-04T14:42:00.212Z,20.50
2023-05-04T14:45:23.991Z,20.70
2023-05-04T14:48:47.836Z,20.80
2023-05-04T14:52:14.561Z,20.90
2023-05-04T14:55:43.858Z,20.90
2023-05-04T14:59:07.697Z,20.80
2023-05-04T15:02:31.748Z,20.90
2023-05-04T15:05:56.017Z,20.80
2023-05-04T15:09:23.356Z,20.90
2023-05-04T15:12:47.709Z,20.80
2023-05-04T15:16:16.718Z,20.90
2023-05-04T15:19:40.768Z,21.00
2023-05-04T15:23:10.224Z,21.00
2023-05-04T15:26:36.088Z,20.80
2023-05-04T15:29:59.742Z,20.90
2023-05-04T15:33:23.686Z,20.90
2023-05-04T15:36:47.765Z,20.90
2023-05-04T15:40:13.329Z,20.90
2023-05-04T15:43:39.070Z,21.00
2023-05-04T15:47:09.366Z,21.20
2023-05-04T15:50:33.507Z,21.50
2023-05-04T15:53:57.756Z,21.30
2023-05-04T15:57:22.308Z,21.40
2023-05-04T16:00:52.322Z,21.40
2023-05-04T16:04:17.847Z,21.10
2023-05-04T16:07:41.791Z,21.10
2023-05-04T16:11:08.028Z,21.10
2023-05-04T16:14:31.810Z,21.20
2023-05-04T16:17:57.197Z,21.00
2023-05-04T16:21:21.197Z,21.00
2023-05-04T16:24:45.010Z,21.00
2023-05-04T16:28:09.569Z,20.90
2023-05-04T16:31:33.981Z,21.10
2023-05-04T16:35:01.412Z,20.90
2023-05-04T16:38:25.846Z,21.00
2023-05-04T16:41:49.851Z,20.90
2023-05-04T16:45:15.204Z,20.90
2023-05-04T16:48:39.970Z,21.00
2023-05-04T16:52:06.177Z,20.80
2023-05-04T16:55:29.823Z,20.90
2023-05-04T16:58:53.831Z,20.90
2023-05-04T17:02:17.847Z,20.90
2023-05-04T17:05:41.841Z,20.90
2023-05-04T17:09:07.877Z,20.80
2023-05-04T17:12:32.084Z,20.70
2023-05-04T17:15:56.155Z,20.70
2023-05-04T17:19:19.856Z,20.60
2023-05-04T17:22:44.247Z,20.60
2023-05-04T17:26:10.313Z,20.50
2023-05-04T17:29:33.842Z,20.40
2023-05-04T17:32:57.948Z,20.30
2023-05-04T17:36:21.889Z,20.20
2023-05-04T17:39:47.028Z,20.10
2023-05-04T17:43:12.346Z,20.00
2023-05-04T17:46:36.221Z,19.80
2023-05-04T17:50:00.040Z,19.70
2023-05-04T17:53:23.937Z,19.60
2023-05-04T17:56:47.887Z,19.40
2023-05-04T18:00:14.838Z,19.30
2023-05-04T18:03:39.075Z,19.10
2023-05-04T18:07:03.022Z,19.10
2023-05-04T18:10:29.499Z,19.10
2023-05-04T18:13:56.252Z,19.00
2023-05-04T18:17:21.745Z,18.90
2023-05-04T18:20:45.946Z,18.80
2023-05-04T18:24:10.076Z,18.70
2023-05-04T18:27:34.464Z,18.60
2023-05-04T18:30:58.932Z,18.60
2023-05-04T18:34:23.819Z,18.50
2023-05-04T18:37:48.255Z,18.40
2023-05-04T18:41:11.999Z,18.30
2023-05-04T18:44:35.601Z,18.30
2023-05-04T18:48:00.241Z,18.20
2023-05-04T18:51:27.844Z,18.10
2023-05-04T18:54:52.038Z,18.10
2023-05-04T18:58:16.037Z,18.00
2023-05-04T19:01:42.455Z,18.00
2023-05-04T19:05:07.366Z,17.90
2023-05-04T19:08:32.344Z,17.80
2023-05-04T19:11:56.073Z,17.70
2023-05-04T19:15:21.191Z,17.60
2023-05-04T19:18:48.010Z,17.50
2023-05-04T19:22:13.208Z,17.50
2023-05-04T19:25:40.598Z,17.40
2023-05-04T19:29:05.033Z,17.40
2023-05-04T19:32:32.562Z,17.30
2023-05-04T19:35:57.160Z,17.20
2023-05-04T19:39:21.044Z,17.10
2023-05-04T19:42:48.524Z,17.00
2023-05-04T19:46:13.146Z,17.00
2023-05-04T19:49:37.040Z,16.90
2023-05-04T19:53:02.150Z,16.80
2023-05-04T19:56:26.074Z,16.70
2023-05-04T19:59:51.632Z,16.70
2023-05-04T20:03:16.906Z,16.60
2023-05-04T20:06:41.072Z,16.60
2023-05-04T20:10:05.387Z,16.40
2023-05-04T20:13:30.289Z,16.40
2023-05-04T20:16:55.823Z,16.30
2023-05-04T20:20:22.710Z,16.20
2023-05-04T20:23:47.130Z,16.20
2023-05-04T20:27:11.093Z,16.20
2023-05-04T20:30:40.280Z,16.20
2023-05-04T20:34:07.944Z,16.10
2023-05-04T20:37:32.521Z,16.00
2023-05-04T20:40:56.053Z,16.00
2023-05-04T20:44:20.313Z,16.00
2023-05-04T20:47:46.098Z,15.90
2023-05-04T20:51:14.508Z,15.80
2023-05-04T20:54:39.448Z,15.80
2023-05-04T20:58:03.141Z,15.70
2023-05-04T21:01:27.422Z,15.70
2023-05-04T21:04:51.427Z,15.60
2023-05-04T21:08:17.483Z,15.50
2023-05-04T21:11:41.152Z,15.40
2023-05-04T21:15:08.279Z,15.30
2023-05-04T21:18:31.795Z,15.30
2023-05-04T21:21:56.549Z,15.30
2023-05-04T21:25:21.544Z,15.20
2023-05-04T21:28:48.538Z,15.20
2023-05-04T21:32:12.202Z,15.20
2023-05-04T21:35:36.197Z,15.20
2023-05-04T21:39:00.352Z,15.20
2023-05-04T21:42:33.220Z,15.20
2023-05-04T21:45:57.190Z,15.00
2023-05-04T21:49:22.124Z,15.00
2023-05-04T21:52:46.212Z,14.90
2023-05-04T21:56:11.850Z,14.90
2023-05-04T21:59:37.546Z,14.70
2023-05-04T22:03:01.744Z,14.60
2023-05-04T22:06:29.023Z,14.50
2023-05-04T22:09:52.740Z,14.50
2023-05-04T22:13:17.440Z,14.40
2023-05-04T22:16:42.620Z,14.30
2023-05-04T22:20:07.941Z,14.30
2023-05-04T22:23:32.245Z,14.30
2023-05-04T22:26:55.850Z,14.40
2023-05-04T22:30:21.344Z,14.40
2023-05-04T22:33:48.436Z,14.40
2023-05-04T22:37:12.328Z,14.40
2023-05-04T22:40:37.836Z,14.40
2023-05-04T22:44:03.251Z,14.40
2023-05-04T22:47:29.618Z,14.40
2023-05-04T22:50:55.721Z,14.40
2023-05-04T22:54:19.336Z,14.30
2023-05-04T22:57:45.780Z,14.30
2023-05-04T23:01:11.665Z,14.20
2023-05-04T23:04:37.894Z,14.10
2023-05-04T23:08:03.651Z,14.10
2023-05-04T23:11:27.191Z,14.00
2023-05-04T23:14:54.559Z,13.90
2023-05-04T23:18:19.293Z,13.80
2023-05-04T23:21:42.933Z,13.80
2023-05-04T23:25:08.467Z,13.90
2023-05-04T23:28:31.997Z,13.70
2023-05-04T23:31:55.689Z,13.70
2023-05-04T23:35:25.026Z,13.60
2023-05-04T23:38:48.510Z,13.60
2023-05-04T23:42:13.406Z,13.60
2023-05-04T23:45:36.894Z,13.60
2023-05-04T23:49:00.506Z,13.50
2023-05-04T23:52:24.009Z,13.40
2023-05-04T23:55:47.572Z,13.40
2023-05-04T23:59:12.468Z,13.30
